createdAt,value
2023-02-01T00:01:22.174Z,76538.16
2023-02-01T00:03:49.327Z,76532.09
2023-02-01T00:06:16.727Z,76530.06
2023-02-01T00:08:43.610Z,76540.19
2023-02-01T00:11:13.283Z,76528.03
2023-02-01T00:13:42.678Z,76523.97
2023-02-01T00:16:13.472Z,76517.88
2023-02-01T00:18:40.529Z,76515.88
2023-02-01T00:21:07.725Z,76507.75
2023-02-01T00:23:36.490Z,76515.88
2023-02-01T00:26:06.188Z,76497.63
2023-02-01T00:28:33.397Z,76487.50
2023-02-01T00:31:02.838Z,76475.31
2023-02-01T00:33:31.236Z,76477.34
2023-02-01T00:35:59.927Z,76475.31
2023-02-01T00:38:28.327Z,76489.50
2023-02-01T00:40:55.760Z,76491.53
2023-02-01T00:43:22.635Z,76475.31
2023-02-01T00:45:49.879Z,76475.31
2023-02-01T00:48:16.776Z,76483.44
2023-02-01T00:50:44.279Z,76483.44
2023-02-01T00:53:12.162Z,76495.59
2023-02-01T00:55:39.357Z,76483.44
2023-02-01T00:58:07.076Z,76475.31
2023-02-01T01:00:34.350Z,76495.59
2023-02-01T01:03:01.421Z,76471.28
2023-02-01T01:05:29.264Z,76475.31
2023-02-01T01:07:56.522Z,76475.31
2023-02-01T01:10:23.825Z,76479.38
2023-02-01T01:12:51.838Z,76481.41
2023-02-01T01:15:18.964Z,76483.44
2023-02-01T01:17:45.911Z,76483.44
2023-02-01T01:20:13.405Z,76487.50
2023-02-01T01:22:40.440Z,76503.69
2023-02-01T01:25:07.889Z,76493.56
2023-02-01T01:27:34.741Z,76499.66
2023-02-01T01:30:02.346Z,76523.97
2023-02-01T01:32:29.349Z,76521.94
2023-02-01T01:34:56.528Z,76519.91
2023-02-01T01:37:23.590Z,76523.97
2023-02-01T01:39:50.726Z,76503.69
2023-02-01T01:42:17.673Z,76515.88
2023-02-01T01:44:57.044Z,76499.66
2023-02-01T01:47:25.423Z,76507.75
2023-02-01T01:49:52.800Z,76503.69
2023-02-01T01:52:21.361Z,76507.75
2023-02-01T01:54:52.927Z,76515.88
2023-02-01T01:57:27.019Z,76515.88
2023-02-01T02:00:06.412Z,76523.97
2023-02-01T02:02:44.422Z,76519.91
2023-02-01T02:05:13.689Z,76507.75
2023-02-01T02:07:46.046Z,76523.97
2023-02-01T02:10:14.424Z,76526.00
2023-02-01T02:12:44.769Z,76536.13
2023-02-01T02:15:14.872Z,76523.97
2023-02-01T02:17:47.426Z,76526.00
2023-02-01T02:20:38.888Z,76519.91
2023-02-01T02:23:23.841Z,76536.13
2023-02-01T02:26:15.685Z,76544.25
2023-02-01T02:29:36.988Z,76540.19
2023-02-01T02:32:13.351Z,76548.31
2023-02-01T02:34:58.739Z,76556.41
2023-02-01T02:37:42.356Z,76544.25
2023-02-01T02:40:21.929Z,76540.19
2023-02-01T02:43:15.932Z,76544.25
2023-02-01T02:46:13.189Z,76536.13
2023-02-01T02:48:49.096Z,76523.97
2023-02-01T02:51:42.856Z,76536.13
2023-02-01T02:54:33.614Z,76523.97
2023-02-01T02:57:24.633Z,76544.25
2023-02-01T03:00:12.749Z,76544.25
2023-02-01T03:02:58.346Z,76530.06
2023-02-01T03:05:26.540Z,76550.31
2023-02-01T03:08:02.432Z,76552.34
2023-02-01T03:11:17.055Z,76554.38
2023-02-01T03:13:58.350Z,76560.47
2023-02-01T03:16:37.694Z,76556.41
2023-02-01T03:19:15.460Z,76554.38
2023-02-01T03:21:49.191Z,76536.13
2023-02-01T03:24:21.971Z,76552.34
2023-02-01T03:26:56.751Z,76550.31
2023-02-01T03:29:33.363Z,76562.50
2023-02-01T03:32:01.399Z,76560.47
2023-02-01T03:34:28.520Z,76552.34
2023-02-01T03:37:04.105Z,76564.50
2023-02-01T03:40:08.505Z,76580.72
2023-02-01T03:42:41.763Z,76592.91
2023-02-01T03:45:18.692Z,76598.97
2023-02-01T03:47:50.092Z,76609.09
2023-02-01T03:50:24.432Z,76605.06
2023-02-01T03:53:14.399Z,76601.00
2023-02-01T03:55:42.643Z,76588.84
2023-02-01T03:58:22.451Z,76592.91
2023-02-01T04:00:58.759Z,76590.88
2023-02-01T04:03:27.599Z,76596.94
2023-02-01T04:05:55.321Z,76596.94
2023-02-01T04:08:26.214Z,76607.09
2023-02-01T04:10:53.176Z,76596.94
2023-02-01T04:13:20.303Z,76601.00
2023-02-01T04:15:50.753Z,76596.94
2023-02-01T04:18:18.097Z,76613.16
2023-02-01T04:20:46.025Z,76611.13
2023-02-01T04:23:13.496Z,76603.03
2023-02-01T04:25:40.359Z,76601.00
2023-02-01T04:28:08.063Z,76584.78
2023-02-01T04:30:35.137Z,76588.84
2023-02-01T04:33:04.646Z,76584.78
2023-02-01T04:35:31.771Z,76576.69
2023-02-01T04:37:58.905Z,76588.84
2023-02-01T04:40:26.169Z,76592.91
2023-02-01T04:42:53.360Z,76598.97
2023-02-01T04:45:20.217Z,76586.81
2023-02-01T04:47:49.088Z,76582.75
2023-02-01T04:50:16.331Z,76596.94
2023-02-01T04:52:43.518Z,76592.91
2023-02-01T04:55:10.517Z,76592.91
2023-02-01T04:57:39.777Z,76592.91
2023-02-01T05:00:08.446Z,76584.78
2023-02-01T05:02:36.053Z,76584.78
2023-02-01T05:05:03.661Z,76580.72
2023-02-01T05:07:31.059Z,76588.84
2023-02-01T05:09:57.873Z,76584.78
2023-02-01T05:12:43.540Z,76588.84
2023-02-01T05:15:10.585Z,76570.59
2023-02-01T05:17:37.911Z,76586.81
2023-02-01T05:20:05.377Z,76576.69
2023-02-01T05:22:32.516Z,76558.44
2023-02-01T05:24:59.377Z,76574.66
2023-02-01T05:27:26.644Z,76568.56
2023-02-01T05:29:53.489Z,76568.56
2023-02-01T05:32:22.801Z,76568.56
2023-02-01T05:34:50.343Z,76568.56
2023-02-01T05:37:17.595Z,76564.50
2023-02-01T05:39:44.568Z,76576.69
2023-02-01T05:42:12.215Z,76556.41
2023-02-01T05:44:39.268Z,76568.56
2023-02-01T05:47:06.487Z,76554.38
2023-02-01T05:49:33.359Z,76572.63
2023-02-01T05:52:00.884Z,76568.56
2023-02-01T05:54:27.893Z,76584.78
2023-02-01T05:56:55.160Z,76592.91
2023-02-01T05:59:22.144Z,76588.84
2023-02-01T06:01:49.460Z,76588.84
2023-02-01T06:04:16.623Z,76584.78
2023-02-01T06:06:43.814Z,76568.56
2023-02-01T06:09:10.834Z,76584.78
2023-02-01T06:11:37.928Z,76580.72
2023-02-01T06:14:04.831Z,76572.63
2023-02-01T06:16:32.683Z,76564.50
2023-02-01T06:18:59.666Z,76576.69
2023-02-01T06:21:26.957Z,76564.50
2023-02-01T06:23:55.096Z,76564.50
2023-02-01T06:26:22.597Z,76576.69
2023-02-01T06:28:50.116Z,76556.41
2023-02-01T06:31:17.549Z,76550.31
2023-02-01T06:33:44.513Z,76546.28
2023-02-01T06:36:13.458Z,76556.41
2023-02-01T06:38:40.657Z,76550.31
2023-02-01T06:41:07.957Z,76552.34
2023-02-01T06:43:35.114Z,76536.13
2023-02-01T06:46:04.384Z,76544.25
2023-02-01T06:48:32.202Z,76519.91
2023-02-01T06:50:59.739Z,76536.13
2023-02-01T06:53:26.669Z,76505.72
2023-02-01T06:55:54.674Z,76523.97
2023-02-01T06:58:22.273Z,76519.91
2023-02-01T07:00:49.738Z,76515.88
2023-02-01T07:03:17.227Z,76528.03
2023-02-01T07:05:44.381Z,76519.91
2023-02-01T07:08:11.249Z,76513.84
2023-02-01T07:10:38.980Z,76517.88
2023-02-01T07:13:06.015Z,76523.97
2023-02-01T07:15:33.559Z,76517.88
2023-02-01T07:18:00.524Z,76523.97
2023-02-01T07:20:27.686Z,76528.03
2023-02-01T07:22:58.303Z,76519.91
2023-02-01T07:25:25.562Z,76536.13
2023-02-01T07:27:52.759Z,76560.47
2023-02-01T07:30:20.095Z,76544.25
2023-02-01T07:32:47.266Z,76564.50
2023-02-01T07:35:15.186Z,76568.56
2023-02-01T07:37:42.308Z,76564.50
2023-02-01T07:40:10.379Z,76548.31
2023-02-01T07:42:37.308Z,76556.41
2023-02-01T07:45:20.371Z,76556.41
2023-02-01T07:47:48.312Z,76560.47
2023-02-01T07:50:16.215Z,76544.25
2023-02-01T07:52:43.166Z,76548.31
2023-02-01T07:55:10.703Z,76554.38
2023-02-01T07:57:37.680Z,76540.19
2023-02-01T08:00:24.328Z,76538.16
2023-02-01T08:02:51.845Z,76532.09
2023-02-01T08:05:19.215Z,76536.13
2023-02-01T08:07:51.084Z,76552.34
2023-02-01T08:10:19.559Z,76528.03
2023-02-01T08:12:49.884Z,76523.97
2023-02-01T08:15:17.352Z,76540.19
2023-02-01T08:17:51.601Z,76538.16
2023-02-01T08:20:19.586Z,76544.25
2023-02-01T08:22:46.514Z,76528.03
2023-02-01T08:25:14.189Z,76544.25
2023-02-01T08:27:41.217Z,76542.22
2023-02-01T08:30:12.549Z,76552.34
2023-02-01T08:32:39.668Z,76544.25
2023-02-01T08:35:07.661Z,76538.16
2023-02-01T08:37:34.805Z,76536.13
2023-02-01T08:40:02.579Z,76532.09
2023-02-01T08:42:47.990Z,76523.97
2023-02-01T08:45:16.342Z,76523.97
2023-02-01T08:47:43.601Z,76519.91
2023-02-01T08:50:11.493Z,76536.13
2023-02-01T08:52:38.913Z,76536.13
2023-02-01T08:55:07.456Z,76556.41
2023-02-01T08:57:34.859Z,76556.41
2023-02-01T09:00:02.382Z,76556.41
2023-02-01T09:02:29.280Z,76548.31
2023-02-01T09:04:57.452Z,76560.47
2023-02-01T09:07:24.467Z,76556.41
2023-02-01T09:09:51.785Z,76552.34
2023-02-01T09:12:18.874Z,76536.13
2023-02-01T09:14:46.168Z,76528.03
2023-02-01T09:17:14.479Z,76523.97
2023-02-01T09:19:43.065Z,76499.66
2023-02-01T09:22:10.187Z,76503.69
2023-02-01T09:24:37.554Z,76495.59
2023-02-01T09:27:04.693Z,76511.81
2023-02-01T09:29:32.033Z,76483.44
2023-02-01T09:32:04.104Z,76483.44
2023-02-01T09:34:32.395Z,76483.44
2023-02-01T09:36:59.448Z,76479.38
2023-02-01T09:39:27.362Z,76467.22
2023-02-01T09:42:15.347Z,76475.31
2023-02-01T09:44:48.280Z,76453.03
2023-02-01T09:47:18.200Z,76438.84
2023-02-01T09:50:31.682Z,76426.69
2023-02-01T09:53:05.830Z,76410.47
2023-02-01T09:55:42.602Z,76408.44
2023-02-01T09:58:31.271Z,76390.19
2023-02-01T10:01:01.043Z,76382.09
2023-02-01T10:03:31.327Z,76386.13
2023-02-01T10:06:31.104Z,76357.75
2023-02-01T10:09:19.996Z,76349.66
2023-02-01T10:12:01.605Z,76329.38
2023-02-01T10:15:10.422Z,76333.44
2023-02-01T10:17:57.962Z,76337.50
2023-02-01T10:20:41.034Z,76353.72
2023-02-01T10:23:35.576Z,76359.78
2023-02-01T10:26:18.516Z,76361.81
2023-02-01T10:28:57.825Z,76357.75
2023-02-01T10:31:29.691Z,76359.78
2023-02-01T10:33:59.635Z,76373.97
2023-02-01T10:36:32.906Z,76357.75
2023-02-01T10:39:01.390Z,76361.81
2023-02-01T10:41:34.051Z,76373.97
2023-02-01T10:44:04.538Z,76353.72
2023-02-01T10:46:32.871Z,76337.50
2023-02-01T10:49:03.734Z,76337.50
2023-02-01T10:51:49.113Z,76317.22
2023-02-01T10:54:21.918Z,76319.25
2023-02-01T10:56:50.770Z,76325.31
2023-02-01T10:59:26.174Z,76321.28
2023-02-01T11:02:06.804Z,76305.06
2023-02-01T11:04:36.732Z,76305.06
2023-02-01T11:07:25.655Z,76292.91
2023-02-01T11:09:57.433Z,76288.84
2023-02-01T11:12:30.455Z,76309.13
2023-02-01T11:15:15.424Z,76309.13
2023-02-01T11:17:47.233Z,76292.91
2023-02-01T11:20:18.732Z,76260.47
2023-02-01T11:23:04.065Z,76207.78
2023-02-01T11:25:34.278Z,76203.72
2023-02-01T11:28:02.181Z,76207.78
2023-02-01T11:30:37.694Z,76211.81
2023-02-01T11:33:07.043Z,76230.06
2023-02-01T11:35:40.344Z,76252.34
2023-02-01T11:38:27.526Z,76276.69
2023-02-01T11:40:54.905Z,76288.84
2023-02-01T11:43:29.889Z,76284.78
2023-02-01T11:46:02.935Z,76305.06
2023-02-01T11:48:34.312Z,76301.00
2023-02-01T11:51:18.979Z,76292.91
2023-02-01T11:54:15.572Z,76284.78
2023-02-01T11:57:01.725Z,76280.72
2023-02-01T11:59:33.771Z,76256.41
2023-02-01T12:02:40.069Z,76236.16
2023-02-01T12:05:25.907Z,76219.94
2023-02-01T12:08:09.377Z,76221.94
2023-02-01T12:10:48.831Z,76228.03
2023-02-01T12:13:22.132Z,76219.94
2023-02-01T12:16:10.837Z,76215.88
2023-02-01T12:18:59.922Z,76234.13
2023-02-01T12:21:37.321Z,76221.94
2023-02-01T12:24:27.034Z,76215.88
2023-02-01T12:27:00.113Z,76242.22
2023-02-01T12:29:30.680Z,76240.19
2023-02-01T12:32:50.256Z,76240.19
2023-02-01T12:35:45.204Z,76240.19
2023-02-01T12:38:36.620Z,76260.47
2023-02-01T12:41:14.136Z,76292.91
2023-02-01T12:44:02.658Z,76301.00
2023-02-01T12:46:39.501Z,76305.06
2023-02-01T12:49:26.372Z,76296.94
2023-02-01T12:52:00.192Z,76296.94
2023-02-01T12:54:43.075Z,76296.94
2023-02-01T12:57:16.129Z,76288.84
2023-02-01T12:59:49.266Z,76276.69
2023-02-01T13:02:51.357Z,76264.53
2023-02-01T13:05:21.875Z,76284.78
2023-02-01T13:08:03.980Z,76280.72
2023-02-01T13:10:42.531Z,76262.50
2023-02-01T13:13:18.373Z,76260.47
2023-02-01T13:15:50.546Z,76266.53
2023-02-01T13:18:20.706Z,76264.53
2023-02-01T13:21:09.623Z,76260.47
2023-02-01T13:23:39.785Z,76284.78
2023-02-01T13:26:07.117Z,76301.00
2023-02-01T13:28:46.210Z,76296.94
2023-02-01T13:31:50.502Z,76296.94
2023-02-01T13:34:46.856Z,76301.00
2023-02-01T13:37:56.909Z,76313.16
2023-02-01T13:40:45.404Z,76313.16
2023-02-01T13:43:15.313Z,76317.22
2023-02-01T13:45:47.626Z,76321.28
2023-02-01T13:48:36.103Z,76329.38
2023-02-01T13:51:03.777Z,76341.53
2023-02-01T13:53:40.692Z,76337.50
2023-02-01T13:56:19.495Z,76343.56
2023-02-01T13:58:48.894Z,76341.53
2023-02-01T14:01:21.888Z,76349.66
2023-02-01T14:03:50.201Z,76333.44
2023-02-01T14:06:17.450Z,76349.66
2023-02-01T14:08:46.021Z,76355.72
2023-02-01T14:11:33.087Z,76361.81
2023-02-01T14:14:17.264Z,76353.72
2023-02-01T14:16:54.311Z,76353.72
2023-02-01T14:19:32.893Z,76361.81
2023-02-01T14:22:21.203Z,76353.72
2023-02-01T14:24:57.746Z,76337.50
2023-02-01T14:27:29.039Z,76329.38
2023-02-01T14:30:02.123Z,76333.44
2023-02-01T14:32:37.662Z,76337.50
2023-02-01T14:35:08.853Z,76343.56
2023-02-01T14:37:37.472Z,76353.72
2023-02-01T14:40:06.209Z,76345.59
2023-02-01T14:42:39.261Z,76345.59
2023-02-01T14:45:24.826Z,76333.44
2023-02-01T14:48:07.995Z,76351.69
2023-02-01T14:50:42.427Z,76353.72
2023-02-01T14:53:09.896Z,76343.56
2023-02-01T14:55:49.420Z,76337.50
2023-02-01T14:58:42.847Z,76349.66
2023-02-01T15:01:22.072Z,76345.59
2023-02-01T15:04:11.092Z,76333.44
2023-02-01T15:06:48.721Z,76337.50
2023-02-01T15:09:18.480Z,76335.47
2023-02-01T15:12:15.817Z,76341.53
2023-02-01T15:14:51.778Z,76341.53
2023-02-01T15:17:21.118Z,76337.50
2023-02-01T15:19:59.586Z,76349.66
2023-02-01T15:22:29.042Z,76357.75
2023-02-01T15:24:59.470Z,76361.81
2023-02-01T15:27:28.543Z,76373.97
2023-02-01T15:29:55.735Z,76365.88
2023-02-01T15:32:34.747Z,76369.91
2023-02-01T15:35:02.568Z,76373.97
2023-02-01T15:37:31.494Z,76373.97
2023-02-01T15:40:10.938Z,76373.97
2023-02-01T15:42:52.323Z,76373.97
2023-02-01T15:45:22.435Z,76369.91
2023-02-01T15:47:52.841Z,76373.97
2023-02-01T15:50:23.308Z,76361.81
2023-02-01T15:52:53.700Z,76365.88
2023-02-01T15:55:43.741Z,76378.03
2023-02-01T15:58:19.560Z,76386.13
2023-02-01T16:00:54.714Z,76382.09
2023-02-01T16:03:34.673Z,76384.09
2023-02-01T16:06:04.650Z,76394.25
2023-02-01T16:08:37.908Z,76406.41
2023-02-01T16:11:11.080Z,76402.34
2023-02-01T16:13:38.282Z,76418.56
2023-02-01T16:16:09.115Z,76428.69
2023-02-01T16:18:36.604Z,76426.69
2023-02-01T16:21:03.966Z,76422.63
2023-02-01T16:23:32.508Z,76410.47
2023-02-01T16:25:59.862Z,76424.66
2023-02-01T16:28:27.154Z,76426.69
2023-02-01T16:30:54.624Z,76418.56
2023-02-01T16:33:23.376Z,76408.44
2023-02-01T16:35:51.989Z,76414.50
2023-02-01T16:38:23.205Z,76406.41
2023-02-01T16:40:50.854Z,76406.41
2023-02-01T16:43:23.274Z,76438.84
2023-02-01T16:45:53.248Z,76404.38
2023-02-01T16:48:29.439Z,76422.63
2023-02-01T16:51:12.401Z,76422.63
2023-02-01T16:53:53.533Z,76434.78
2023-02-01T16:56:32.072Z,76414.50
2023-02-01T16:58:59.328Z,76410.47
2023-02-01T17:01:27.223Z,76408.44
2023-02-01T17:03:54.520Z,76410.47
2023-02-01T17:06:25.641Z,76414.50
2023-02-01T17:08:55.409Z,76426.69
2023-02-01T17:11:22.804Z,76416.53
2023-02-01T17:13:49.752Z,76418.56
2023-02-01T17:16:20.450Z,76404.38
2023-02-01T17:19:00.527Z,76418.56
2023-02-01T17:21:30.086Z,76414.50
2023-02-01T17:24:00.268Z,76420.59
2023-02-01T17:26:28.318Z,76426.69
2023-02-01T17:28:55.349Z,76422.63
2023-02-01T17:31:22.902Z,76430.72
2023-02-01T17:33:51.413Z,76434.78
2023-02-01T17:36:18.844Z,76446.94
2023-02-01T17:38:53.875Z,76440.88
2023-02-01T17:41:27.308Z,76438.84
2023-02-01T17:43:54.492Z,76442.91
2023-02-01T17:46:27.056Z,76442.91
2023-02-01T17:48:55.082Z,76463.16
2023-02-01T17:51:25.719Z,76436.81
2023-02-01T17:53:52.849Z,76438.84
2023-02-01T17:56:25.757Z,76448.97
2023-02-01T17:58:52.853Z,76434.78
2023-02-01T18:01:23.114Z,76438.84
2023-02-01T18:03:50.976Z,76442.91
2023-02-01T18:06:21.976Z,76459.09
2023-02-01T18:08:49.127Z,76442.91
2023-02-01T18:11:19.044Z,76451.00
2023-02-01T18:13:46.786Z,76446.94
2023-02-01T18:16:34.532Z,76446.94
2023-02-01T18:19:05.238Z,76442.91
2023-02-01T18:21:38.890Z,76455.06
2023-02-01T18:24:07.329Z,76467.22
2023-02-01T18:26:34.856Z,76467.22
2023-02-01T18:29:01.921Z,76483.44
2023-02-01T18:31:31.756Z,76495.59
2023-02-01T18:34:01.188Z,76515.88
2023-02-01T18:36:30.516Z,76523.97
2023-02-01T18:38:57.892Z,76519.91
2023-02-01T18:41:25.889Z,76523.97
2023-02-01T18:43:53.081Z,76519.91
2023-02-01T18:46:22.201Z,76528.03
2023-02-01T18:48:49.346Z,76521.94
2023-02-01T18:51:23.559Z,76523.97
2023-02-01T18:53:51.661Z,76499.66
2023-02-01T18:56:19.180Z,76511.81
2023-02-01T18:58:46.528Z,76509.78
2023-02-01T19:01:20.131Z,76511.81
2023-02-01T19:03:53.605Z,76503.69
2023-02-01T19:06:26.377Z,76511.81
2023-02-01T19:08:56.060Z,76499.66
2023-02-01T19:11:23.364Z,76483.44
2023-02-01T19:13:51.884Z,76483.44
2023-02-01T19:16:19.375Z,76483.44
2023-02-01T19:18:50.862Z,76475.31
2023-02-01T19:21:18.063Z,76471.28
2023-02-01T19:23:45.566Z,76479.38
2023-02-01T19:26:14.822Z,76483.44
2023-02-01T19:28:44.688Z,76487.50
2023-02-01T19:31:12.076Z,76491.53
2023-02-01T19:33:39.101Z,76495.59
2023-02-01T19:36:09.396Z,76495.59
2023-02-01T19:38:37.009Z,76495.59
2023-02-01T19:41:04.653Z,76505.72
2023-02-01T19:43:32.659Z,76511.81
2023-02-01T19:46:02.775Z,76519.91
2023-02-01T19:48:31.415Z,76517.88
2023-02-01T19:50:59.295Z,76519.91
2023-02-01T19:53:28.123Z,76528.03
2023-02-01T19:55:57.121Z,76542.22
2023-02-01T19:58:25.350Z,76528.03
2023-02-01T20:00:54.257Z,76538.16
2023-02-01T20:03:21.845Z,76536.13
2023-02-01T20:05:57.203Z,76532.09
2023-02-01T20:08:24.810Z,76532.09
2023-02-01T20:10:52.005Z,76536.13
2023-02-01T20:13:19.048Z,76519.91
2023-02-01T20:15:46.431Z,76517.88
2023-02-01T20:18:13.634Z,76521.94
2023-02-01T20:20:41.979Z,76528.03
2023-02-01T20:23:09.254Z,76528.03
2023-02-01T20:25:38.270Z,76509.78
2023-02-01T20:28:05.608Z,76523.97
2023-02-01T20:30:33.371Z,76530.06
2023-02-01T20:33:00.323Z,76544.25
2023-02-01T20:35:28.680Z,76540.19
2023-02-01T20:37:57.160Z,76540.19
2023-02-01T20:40:24.836Z,76552.34
2023-02-01T20:42:51.997Z,76552.34
2023-02-01T20:45:19.511Z,76556.41
2023-02-01T20:47:52.656Z,76556.41
2023-02-01T20:50:20.225Z,76548.31
2023-02-01T20:52:47.214Z,76544.25
2023-02-01T20:55:14.484Z,76548.31
2023-02-01T20:57:42.109Z,76552.34
2023-02-01T21:00:10.346Z,76556.41
2023-02-01T21:02:37.891Z,76536.13
2023-02-01T21:05:05.752Z,76536.13
2023-02-01T21:07:32.645Z,76530.06
2023-02-01T21:10:00.053Z,76523.97
2023-02-01T21:12:27.016Z,76513.84
2023-02-01T21:14:55.439Z,76511.81
2023-02-01T21:17:23.171Z,76503.69
2023-02-01T21:19:50.394Z,76499.66
2023-02-01T21:22:17.548Z,76497.63
2023-02-01T21:24:45.693Z,76487.50
2023-02-01T21:27:13.387Z,76483.44
2023-02-01T21:29:40.869Z,76481.41
2023-02-01T21:32:09.137Z,76493.56
2023-02-01T21:34:36.407Z,76499.66
2023-02-01T21:37:03.553Z,76495.59
2023-02-01T21:39:30.771Z,76495.59
2023-02-01T21:42:17.662Z,76497.63
2023-02-01T21:44:49.023Z,76487.50
2023-02-01T21:47:18.084Z,76491.53
2023-02-01T21:49:46.651Z,76487.50
2023-02-01T21:52:16.085Z,76483.44
2023-02-01T21:54:43.745Z,76475.31
2023-02-01T21:57:12.661Z,76467.22
2023-02-01T21:59:41.975Z,76463.16
2023-02-01T22:02:28.142Z,76459.09
2023-02-01T22:04:57.667Z,76455.06
2023-02-01T22:07:24.621Z,76467.22
2023-02-01T22:09:52.339Z,76467.22
2023-02-01T22:12:19.794Z,76471.28
2023-02-01T22:14:49.542Z,76463.16
2023-02-01T22:17:16.543Z,76455.06
2023-02-01T22:19:43.721Z,76471.28
2023-02-01T22:22:11.764Z,76471.28
2023-02-01T22:24:38.970Z,76469.25
2023-02-01T22:27:13.343Z,76473.28
2023-02-01T22:29:42.196Z,76475.31
2023-02-01T22:32:09.276Z,76471.28
2023-02-01T22:34:36.425Z,76467.22
2023-02-01T22:37:03.377Z,76475.31
2023-02-01T22:39:30.666Z,76463.16
2023-02-01T22:41:57.570Z,76455.06
2023-02-01T22:44:24.751Z,76463.16
2023-02-01T22:46:51.671Z,76467.22
2023-02-01T22:49:18.847Z,76461.13
2023-02-01T22:51:46.351Z,76467.22
2023-02-01T22:54:17.987Z,76471.28
2023-02-01T22:56:44.907Z,76463.16
2023-02-01T22:59:14.364Z,76463.16
2023-02-01T23:01:42.113Z,76471.28
2023-02-01T23:04:12.528Z,76471.28
2023-02-01T23:06:40.189Z,76483.44
2023-02-01T23:09:15.568Z,76489.50
2023-02-01T23:11:43.238Z,76509.78
2023-02-01T23:14:13.240Z,76519.91
2023-02-01T23:16:41.346Z,76544.25
2023-02-01T23:19:08.735Z,76576.69
2023-02-01T23:21:35.967Z,76582.75
2023-02-01T23:24:07.166Z,76572.63
2023-02-01T23:26:34.854Z,76588.84
2023-02-01T23:29:02.714Z,76592.91
2023-02-01T23:31:34.669Z,76592.91
2023-02-01T23:34:03.372Z,76596.94
2023-02-01T23:36:31.991Z,76596.94
2023-02-01T23:39:00.315Z,76596.94
2023-02-01T23:41:30.011Z,76601.00
2023-02-01T23:43:59.995Z,76596.94
2023-02-01T23:46:39.327Z,76588.84
2023-02-01T23:49:08.130Z,76584.78
2023-02-01T23:51:35.421Z,76576.69
2023-02-01T23:54:03.886Z,76580.72
2023-02-01T23:56:34.569Z,76568.56
2023-02-01T23:59:04.618Z,76568.56
